createdAt,value
2023-05-01T00:00:05.666Z,7.1000
2023-05-01T00:01:07.529Z,6.9923
2023-05-01T00:02:10.152Z,7.0923
2023-05-01T00:03:12.838Z,7.1846
2023-05-01T00:04:15.521Z,7.2000
2023-05-01T00:05:17.936Z,7.1846
2023-05-01T00:06:20.597Z,7.6000
2023-05-01T00:07:23.138Z,7.3154
2023-05-01T00:08:25.751Z,7.3154
2023-05-01T00:09:28.337Z,7.2154
2023-05-01T00:12:10.203Z,7.0500
2023-05-01T00:13:12.585Z,7.0000
2023-05-01T00:14:15.174Z,7.1846
2023-05-01T00:15:17.803Z,7.0692
2023-05-01T00:16:20.428Z,7.1462
2023-05-01T00:17:23.011Z,7.4462
2023-05-01T00:18:25.587Z,7.0000
2023-05-01T00:19:28.219Z,7.2846
2023-05-01T00:20:30.798Z,7.1308
2023-05-01T00:21:33.436Z,7.2077
2023-05-01T00:22:36.025Z,7.0692
2023-05-01T00:23:38.643Z,7.2154
2023-05-01T00:24:41.212Z,7.2154
2023-05-01T00:25:43.831Z,7.2308
2023-05-01T00:26:46.425Z,6.8923
2023-05-01T00:27:49.042Z,6.8846
2023-05-01T00:28:51.726Z,6.9692
2023-05-01T00:29:54.646Z,6.7077
2023-05-01T00:32:07.043Z,7.2714
2023-05-01T00:33:09.641Z,6.7692
2023-05-01T00:34:12.213Z,6.7923
2023-05-01T00:35:14.801Z,6.8923
2023-05-01T00:36:17.431Z,7.1462
2023-05-01T00:37:20.014Z,7.1846
2023-05-01T00:38:22.784Z,7.1231
2023-05-01T00:39:25.236Z,6.9923
2023-05-01T00:40:27.866Z,7.4769
2023-05-01T00:41:30.451Z,7.2769
2023-05-01T00:42:33.069Z,7.5000
2023-05-01T00:43:35.662Z,7.5769
2023-05-01T00:44:38.284Z,7.1923
2023-05-01T00:45:40.881Z,7.4000
2023-05-01T00:46:43.498Z,7.3846
2023-05-01T00:47:46.104Z,7.5154
2023-05-01T00:48:48.702Z,7.4154
2023-05-01T00:49:51.279Z,7.3231
2023-05-01T00:52:42.581Z,7.6357
2023-05-01T00:53:45.160Z,7.7769
2023-05-01T00:54:47.789Z,7.7769
2023-05-01T00:55:50.376Z,7.6154
2023-05-01T00:56:53.014Z,7.4231
2023-05-01T00:57:55.603Z,7.4615
2023-05-01T00:58:58.253Z,7.2846
2023-05-01T01:00:00.839Z,7.2077
2023-05-01T01:01:03.495Z,7.3000
2023-05-01T01:02:06.040Z,7.4538
2023-05-01T01:03:08.752Z,7.4692
2023-05-01T01:04:11.293Z,7.3231
2023-05-01T01:06:43.407Z,7.5143
2023-05-01T01:07:45.885Z,7.4692
2023-05-01T01:08:48.530Z,7.7538
2023-05-01T01:09:51.117Z,7.4077
2023-05-01T01:12:47.247Z,7.6500
2023-05-01T01:13:49.836Z,7.7000
2023-05-01T01:14:52.498Z,7.7385
2023-05-01T01:15:55.052Z,7.5000
2023-05-01T01:16:57.746Z,7.5154
2023-05-01T01:18:00.347Z,7.6154
2023-05-01T01:19:02.902Z,7.4538
2023-05-01T01:20:05.490Z,7.6538
2023-05-01T01:21:08.263Z,7.6538
2023-05-01T01:22:10.686Z,7.4615
2023-05-01T01:24:57.208Z,7.4429
2023-05-01T01:25:59.772Z,7.5769
2023-05-01T01:27:04.625Z,7.5154
2023-05-01T01:28:04.988Z,7.3385
2023-05-01T01:29:07.625Z,7.5692
2023-05-01T01:30:10.200Z,7.5923
2023-05-01T01:31:12.907Z,7.2692
2023-05-01T01:32:15.409Z,7.4154
2023-05-01T01:33:18.055Z,7.5385
2023-05-01T01:34:20.629Z,7.6769
2023-05-01T01:35:23.266Z,7.6846
2023-05-01T01:36:25.842Z,7.5385
2023-05-01T01:37:28.492Z,7.4077
2023-05-01T01:38:31.076Z,7.7000
2023-05-01T01:39:33.715Z,7.5538
2023-05-01T01:40:36.260Z,7.4077
2023-05-01T01:41:38.906Z,7.4923
2023-05-01T01:42:41.484Z,7.6000
2023-05-01T01:43:44.127Z,7.4385
2023-05-01T01:44:46.696Z,7.6615
2023-05-01T01:45:49.338Z,7.6462
2023-05-01T01:46:51.906Z,7.8462
2023-05-01T01:47:54.541Z,7.4231
2023-05-01T01:48:57.124Z,7.5923
2023-05-01T01:49:59.774Z,7.4538
2023-05-01T01:51:02.340Z,7.5154
2023-05-01T01:52:04.962Z,7.5462
2023-05-01T01:53:07.550Z,7.6231
2023-05-01T01:54:10.190Z,7.7538
2023-05-01T01:55:12.771Z,7.7000
2023-05-01T01:56:15.399Z,7.7462
2023-05-01T01:57:17.977Z,8.0615
2023-05-01T01:58:20.597Z,8.0385
2023-05-01T01:59:23.479Z,8.1769
2023-05-01T02:00:25.818Z,8.4154
2023-05-01T02:01:28.430Z,8.3462
2023-05-01T02:02:31.148Z,8.3231
2023-05-01T02:03:33.643Z,8.0846
2023-05-01T02:04:36.256Z,8.1231
2023-05-01T02:05:38.814Z,8.1000
2023-05-01T02:06:41.505Z,8.2462
2023-05-01T02:07:44.034Z,8.0231
2023-05-01T02:08:46.675Z,7.9000
2023-05-01T02:09:49.229Z,7.7231
2023-05-01T02:10:51.874Z,7.7154
2023-05-01T02:13:48.038Z,7.8214
2023-05-01T02:14:50.580Z,7.9846
2023-05-01T02:15:53.228Z,7.8769
2023-05-01T02:16:55.807Z,8.0615
2023-05-01T02:17:58.469Z,7.9846
2023-05-01T02:19:01.000Z,7.9231
2023-05-01T02:20:03.628Z,8.1692
2023-05-01T02:21:06.214Z,8.1231
2023-05-01T02:22:09.058Z,8.0462
2023-05-01T02:23:11.463Z,8.2077
2023-05-01T02:24:14.034Z,8.1462
2023-05-01T02:25:16.777Z,8.1385
2023-05-01T02:26:19.258Z,8.0462
2023-05-01T02:27:21.867Z,8.3077
2023-05-01T02:28:24.450Z,8.0385
2023-05-01T02:30:42.015Z,7.9929
2023-05-01T02:31:44.797Z,8.0615
2023-05-01T02:32:47.280Z,8.3692
2023-05-01T02:33:49.957Z,8.2231
2023-05-01T02:34:52.439Z,8.1231
2023-05-01T02:35:55.095Z,8.5692
2023-05-01T02:36:57.757Z,8.7462
2023-05-01T02:38:00.290Z,8.4385
2023-05-01T02:39:02.892Z,8.6692
2023-05-01T02:40:05.510Z,8.7615
2023-05-01T02:41:08.078Z,8.7385
2023-05-01T02:42:10.725Z,8.4846
2023-05-01T02:43:13.294Z,8.8923
2023-05-01T02:44:15.943Z,8.7846
2023-05-01T02:45:18.503Z,8.9308
2023-05-01T02:46:21.267Z,8.9000
2023-05-01T02:47:23.831Z,9.1000
2023-05-01T02:48:26.337Z,9.1000
2023-05-01T02:49:28.938Z,8.8846
2023-05-01T02:50:31.570Z,8.9615
2023-05-01T02:51:34.166Z,8.8923
2023-05-01T02:52:36.750Z,8.5462
2023-05-01T02:53:39.375Z,8.8462
2023-05-01T02:54:41.960Z,8.9538
2023-05-01T02:55:44.586Z,9.5692
2023-05-01T02:56:47.156Z,9.4615
2023-05-01T02:57:49.786Z,9.4692
2023-05-01T02:58:52.367Z,9.6000
2023-05-01T02:59:55.220Z,9.7846
2023-05-01T03:00:57.622Z,9.6231
2023-05-01T03:02:00.205Z,9.7077
2023-05-01T03:03:02.868Z,9.5000
2023-05-01T03:04:05.474Z,9.4154
2023-05-01T03:05:08.022Z,9.3385
2023-05-01T03:06:10.653Z,9.4692
2023-05-01T03:07:13.263Z,9.4923
2023-05-01T03:08:15.871Z,9.5462
2023-05-01T03:09:18.424Z,9.6692
2023-05-01T03:10:21.060Z,9.6308
2023-05-01T03:11:23.707Z,9.2077
2023-05-01T03:12:26.261Z,9.5000
2023-05-01T03:13:28.868Z,9.4154
2023-05-01T03:14:31.471Z,9.4538
2023-05-01T03:15:34.058Z,9.5000
2023-05-01T03:16:36.693Z,9.1692
2023-05-01T03:17:39.325Z,9.0923
2023-05-01T03:18:41.894Z,9.4154
2023-05-01T03:19:44.500Z,9.1769
2023-05-01T03:20:47.123Z,9.2308
2023-05-01T03:21:49.691Z,9.4615
2023-05-01T03:22:52.325Z,9.5769
2023-05-01T03:23:54.921Z,9.6154
2023-05-01T03:24:57.573Z,9.6385
2023-05-01T03:26:00.137Z,9.8308
2023-05-01T03:27:02.789Z,9.8154
2023-05-01T03:28:05.325Z,10.1077
2023-05-01T03:29:07.953Z,9.8154
2023-05-01T03:30:10.543Z,10.0000
2023-05-01T03:31:13.170Z,9.5462
2023-05-01T03:32:15.997Z,9.7692
2023-05-01T03:33:18.403Z,9.8692
2023-05-01T03:34:20.955Z,9.5231
2023-05-01T03:35:23.649Z,9.6692
2023-05-01T03:36:26.169Z,9.5385
2023-05-01T03:37:28.803Z,9.4077
2023-05-01T03:38:31.375Z,9.7077
2023-05-01T03:39:34.028Z,9.6538
2023-05-01T03:40:36.605Z,9.4692
2023-05-01T03:41:39.249Z,9.8846
2023-05-01T03:42:41.825Z,9.6769
2023-05-01T03:43:44.453Z,9.6462
2023-05-01T03:44:47.070Z,9.7769
2023-05-01T03:45:49.689Z,9.7308
2023-05-01T03:46:52.241Z,10.1538
2023-05-01T03:47:54.971Z,9.7000
2023-05-01T03:48:57.454Z,9.8077
2023-05-01T03:50:00.090Z,9.5769
2023-05-01T03:51:02.657Z,9.7615
2023-05-01T03:52:05.387Z,9.6692
2023-05-01T03:53:07.869Z,9.8308
2023-05-01T03:54:10.496Z,9.8077
2023-05-01T03:55:13.084Z,9.8538
2023-05-01T03:56:15.699Z,9.7692
2023-05-01T03:57:18.285Z,10.3385
2023-05-01T03:58:20.944Z,10.3154
2023-05-01T03:59:23.495Z,10.3000
2023-05-01T04:00:26.126Z,10.3231
2023-05-01T04:01:28.704Z,10.3308
2023-05-01T04:02:31.426Z,10.2462
2023-05-01T04:03:33.983Z,10.1538
2023-05-01T04:04:36.670Z,10.4308
2023-05-01T04:05:39.141Z,10.4846
2023-05-01T04:06:41.774Z,10.4077
2023-05-01T04:07:44.341Z,10.5231
2023-05-01T04:10:45.325Z,10.2929
2023-05-01T04:11:47.850Z,10.3077
2023-05-01T04:12:50.482Z,10.2385
2023-05-01T04:13:53.083Z,10.3231
2023-05-01T04:14:55.705Z,10.2308
2023-05-01T04:15:58.314Z,10.0231
2023-05-01T04:18:39.961Z,10.5357
2023-05-01T04:19:42.741Z,10.4692
2023-05-01T04:20:45.191Z,10.1462
2023-05-01T04:21:47.800Z,10.3231
2023-05-01T04:22:50.393Z,10.5846
2023-05-01T04:23:53.022Z,10.4154
2023-05-01T04:24:55.608Z,10.4154
2023-05-01T04:25:58.255Z,10.2692
2023-05-01T04:27:00.824Z,10.5231
2023-05-01T04:28:03.476Z,10.4615
2023-05-01T04:29:06.069Z,10.3462
2023-05-01T04:30:08.671Z,10.2692
2023-05-01T04:31:11.552Z,10.5692
2023-05-01T04:32:13.876Z,10.6000
2023-05-01T04:33:16.472Z,10.8308
2023-05-01T04:34:19.090Z,10.5308
2023-05-01T04:35:21.692Z,12.6846
2023-05-01T04:36:24.310Z,12.0538
2023-05-01T04:37:26.913Z,11.6923
2023-05-01T04:38:29.531Z,11.7538
2023-05-01T04:39:32.112Z,10.4538
2023-05-01T04:40:34.734Z,10.7077
2023-05-01T04:41:37.332Z,10.8231
2023-05-01T04:42:39.958Z,10.7154
2023-05-01T04:43:42.537Z,10.6462
2023-05-01T04:44:45.167Z,10.8231
2023-05-01T04:45:47.751Z,10.8231
2023-05-01T04:46:50.444Z,10.9692
2023-05-01T04:47:53.009Z,11.0769
2023-05-01T04:48:55.609Z,11.0846
2023-05-01T04:49:58.381Z,11.1538
2023-05-01T04:51:00.829Z,11.0385
2023-05-01T04:52:03.382Z,10.6769
2023-05-01T04:53:06.030Z,10.5385
2023-05-01T04:54:08.603Z,10.3615
2023-05-01T04:55:11.248Z,10.3692
2023-05-01T04:56:13.828Z,10.6769
2023-05-01T04:57:16.455Z,10.5000
2023-05-01T04:58:19.054Z,10.7231
2023-05-01T04:59:21.681Z,10.5846
2023-05-01T05:00:24.272Z,10.3000
2023-05-01T05:01:26.955Z,10.8077
2023-05-01T05:02:29.539Z,10.4692
2023-05-01T05:03:32.334Z,10.6769
2023-05-01T05:04:34.789Z,11.1692
2023-05-01T05:05:37.309Z,11.2692
2023-05-01T05:06:39.961Z,10.8385
2023-05-01T05:07:42.495Z,10.7000
2023-05-01T05:08:45.088Z,10.8000
2023-05-01T05:09:47.715Z,11.0615
2023-05-01T05:10:50.291Z,10.8462
2023-05-01T05:11:52.923Z,11.0000
2023-05-01T05:12:55.500Z,11.1462
2023-05-01T05:13:58.140Z,11.0923
2023-05-01T05:15:00.710Z,11.8077
2023-05-01T05:16:03.424Z,30.7000
2023-05-01T05:17:05.915Z,27.1462
2023-05-01T05:18:08.580Z,19.6231
2023-05-01T05:19:11.115Z,14.4615
2023-05-01T05:20:13.748Z,12.4462
2023-05-01T05:21:16.317Z,11.5923
2023-05-01T05:22:18.947Z,11.1692
2023-05-01T05:23:21.545Z,10.3154
2023-05-01T05:24:24.161Z,10.1846
2023-05-01T05:25:26.725Z,10.3538
2023-05-01T05:26:29.366Z,10.7692
2023-05-01T05:27:31.935Z,10.6923
2023-05-01T05:28:34.573Z,10.6231
2023-05-01T05:29:37.143Z,10.7846
2023-05-01T05:30:39.782Z,11.4308
2023-05-01T05:31:42.404Z,11.6077
2023-05-01T05:32:45.008Z,11.6692
2023-05-01T05:33:47.550Z,11.8692
2023-05-01T05:34:50.219Z,11.7538
2023-05-01T05:35:52.777Z,11.4462
2023-05-01T05:36:55.404Z,11.3692
2023-05-01T05:37:57.988Z,10.9923
2023-05-01T05:39:00.597Z,9.6692
2023-05-01T05:40:03.170Z,9.8846
2023-05-01T05:42:25.562Z,10.4500
2023-05-01T05:43:28.401Z,10.7308
2023-05-01T05:44:30.976Z,11.3846
2023-05-01T05:45:33.451Z,11.4769
2023-05-01T05:46:36.005Z,11.0077
2023-05-01T05:47:38.675Z,11.2231
2023-05-01T05:48:41.218Z,10.7308
2023-05-01T05:49:43.848Z,14.0154
2023-05-01T05:50:46.424Z,15.7846
2023-05-01T05:51:49.056Z,15.0462
2023-05-01T05:52:51.637Z,14.4308
2023-05-01T05:53:54.270Z,13.9077
2023-05-01T05:54:56.876Z,13.4154
2023-05-01T05:55:59.492Z,12.2923
2023-05-01T05:57:02.067Z,11.6308
2023-05-01T05:58:04.718Z,11.8000
2023-05-01T05:59:07.281Z,12.0692
2023-05-01T06:00:09.908Z,11.8615
2023-05-01T06:01:12.487Z,11.8000
2023-05-01T06:02:15.135Z,11.6692
2023-05-01T06:03:17.738Z,11.8077
2023-05-01T06:04:20.308Z,11.7000
2023-05-01T06:05:22.927Z,11.4308
2023-05-01T06:06:25.532Z,11.4000
2023-05-01T06:07:28.100Z,11.4846
2023-05-01T06:08:30.764Z,11.8538
2023-05-01T06:09:33.326Z,11.8077
2023-05-01T06:10:35.944Z,11.8000
2023-05-01T06:11:38.558Z,11.2000
2023-05-01T06:12:42.822Z,11.0385
2023-05-01T06:13:43.729Z,11.3077
2023-05-01T06:14:46.357Z,11.4077
2023-05-01T06:15:49.018Z,11.2308
2023-05-01T06:16:51.577Z,11.6692
2023-05-01T06:17:54.195Z,11.7077
2023-05-01T06:18:56.782Z,11.6000
2023-05-01T06:19:59.542Z,11.6308
2023-05-01T06:21:01.988Z,11.8154
2023-05-01T06:22:04.567Z,11.7385
2023-05-01T06:23:07.195Z,11.6000
2023-05-01T06:24:09.772Z,12.0077
2023-05-01T06:25:12.397Z,11.6538
2023-05-01T06:26:14.991Z,11.5846
2023-05-01T06:27:17.623Z,11.8154
2023-05-01T06:28:20.175Z,12.0923
2023-05-01T06:29:22.817Z,11.8385
2023-05-01T06:30:25.390Z,11.9231
2023-05-01T06:32:52.841Z,11.9857
2023-05-01T06:33:55.346Z,11.9231
2023-05-01T06:34:57.798Z,11.8154
2023-05-01T06:36:00.446Z,12.4385
2023-05-01T06:37:03.021Z,11.7923
2023-05-01T06:38:05.664Z,11.0231
2023-05-01T06:39:08.225Z,11.7385
2023-05-01T06:40:10.869Z,11.8615
2023-05-01T06:41:13.447Z,11.4462
2023-05-01T06:42:16.083Z,11.0615
2023-05-01T06:43:18.665Z,11.4615
2023-05-01T06:44:21.301Z,11.8692
2023-05-01T06:45:23.895Z,12.3538
2023-05-01T06:46:26.533Z,12.7538
2023-05-01T06:47:29.102Z,12.2385
2023-05-01T06:48:31.734Z,12.3231
2023-05-01T06:49:34.313Z,12.5308
2023-05-01T06:50:36.944Z,12.1923
2023-05-01T06:51:39.545Z,11.7385
2023-05-01T06:52:42.144Z,11.1769
2023-05-01T06:53:44.735Z,10.8846
2023-05-01T06:54:47.362Z,10.9000
2023-05-01T06:55:49.949Z,11.4154
2023-05-01T06:56:52.582Z,11.4615
2023-05-01T06:57:55.158Z,11.4154
2023-05-01T06:58:57.789Z,10.3000
2023-05-01T07:00:00.359Z,10.3462
2023-05-01T07:01:03.169Z,10.3385
2023-05-01T07:02:05.587Z,10.3462
2023-05-01T07:03:08.247Z,10.0154
2023-05-01T07:04:10.887Z,9.4077
2023-05-01T07:05:13.552Z,9.3231
2023-05-01T07:06:16.012Z,9.2154
2023-05-01T07:07:18.626Z,9.3077
2023-05-01T07:08:21.202Z,8.5538
2023-05-01T07:09:23.846Z,8.3462
2023-05-01T07:10:26.451Z,7.7077
2023-05-01T07:11:29.045Z,7.4462
2023-05-01T07:12:31.631Z,7.5692
2023-05-01T07:13:34.249Z,7.4308
2023-05-01T07:14:36.831Z,7.6692
2023-05-01T07:15:39.606Z,7.2154
2023-05-01T07:16:42.354Z,7.2769
2023-05-01T07:17:44.694Z,6.9846
2023-05-01T07:18:47.249Z,7.2692
2023-05-01T07:19:49.908Z,7.1308
2023-05-01T07:20:52.473Z,6.9538
2023-05-01T07:21:55.095Z,7.1538
2023-05-01T07:22:57.681Z,7.4000
2023-05-01T07:24:00.290Z,7.3692
2023-05-01T07:25:02.875Z,7.5923
2023-05-01T07:26:05.509Z,6.9769
2023-05-01T07:27:08.077Z,7.0385
2023-05-01T07:28:10.704Z,6.6154
2023-05-01T07:29:13.308Z,6.8000
2023-05-01T07:30:15.938Z,6.6000
2023-05-01T07:31:18.551Z,6.5308
2023-05-01T07:33:23.795Z,6.7769
2023-05-01T07:34:26.476Z,6.6538
2023-05-01T07:35:28.915Z,6.4154
2023-05-01T07:36:31.528Z,6.1846
2023-05-01T07:37:34.103Z,5.7077
2023-05-01T07:38:36.735Z,5.9308
2023-05-01T07:39:39.316Z,6.3769
2023-05-01T07:40:41.940Z,6.7308
2023-05-01T07:41:44.551Z,6.4769
2023-05-01T07:42:47.163Z,6.1385
2023-05-01T07:43:49.719Z,6.1077
2023-05-01T07:44:52.344Z,6.1385
2023-05-01T07:45:55.004Z,6.2385
2023-05-01T07:46:57.517Z,6.3538
2023-05-01T07:48:00.278Z,5.9615
2023-05-01T07:49:02.724Z,5.6846
2023-05-01T07:50:05.348Z,4.9385
2023-05-01T07:51:07.920Z,4.3231
2023-05-01T07:52:10.568Z,3.9615
2023-05-01T07:53:13.144Z,3.8615
2023-05-01T07:54:15.777Z,3.6923
2023-05-01T07:55:18.341Z,3.4308
2023-05-01T07:56:20.977Z,3.1923
2023-05-01T07:57:23.563Z,2.7385
2023-05-01T07:58:26.169Z,2.9462
2023-05-01T07:59:28.754Z,3.1154
2023-05-01T08:00:31.379Z,2.8231
2023-05-01T08:02:39.302Z,2.9500
2023-05-01T08:03:42.020Z,2.8923
2023-05-01T08:04:44.494Z,2.7615
2023-05-01T08:05:47.129Z,2.6923
2023-05-01T08:06:49.741Z,2.7231
2023-05-01T08:07:52.333Z,2.6154
2023-05-01T08:08:54.929Z,2.5769
2023-05-01T08:09:59.924Z,2.4692
2023-05-01T08:11:00.140Z,2.4846
2023-05-01T08:12:02.900Z,2.4538
2023-05-01T08:13:05.351Z,2.5308
2023-05-01T08:14:07.968Z,2.4846
2023-05-01T08:15:10.573Z,2.5615
2023-05-01T08:16:13.203Z,2.5308
2023-05-01T08:17:15.766Z,2.5231
2023-05-01T08:18:18.397Z,2.5846
2023-05-01T08:19:20.988Z,2.3385
2023-05-01T08:20:23.633Z,2.4308
2023-05-01T08:21:26.183Z,2.5615
2023-05-01T08:22:28.825Z,2.4769
2023-05-01T08:23:31.398Z,2.4769
2023-05-01T08:24:34.017Z,2.4846
2023-05-01T08:25:36.600Z,2.6538
2023-05-01T08:26:39.230Z,2.5538
2023-05-01T08:27:41.794Z,2.4308
2023-05-01T08:28:44.444Z,2.3231
2023-05-01T08:29:47.009Z,2.2615
2023-05-01T08:30:49.648Z,2.2385
2023-05-01T08:31:52.236Z,2.2769
2023-05-01T08:32:54.882Z,2.1692
2023-05-01T08:33:57.422Z,2.3385
2023-05-01T08:35:00.073Z,2.3000
2023-05-01T08:36:02.613Z,2.2000
2023-05-01T08:37:05.231Z,2.2231
2023-05-01T08:38:07.805Z,2.1692
2023-05-01T08:39:10.433Z,2.2077
2023-05-01T08:40:13.025Z,1.9538
2023-05-01T08:41:15.652Z,2.0538
2023-05-01T08:42:18.223Z,2.1077
2023-05-01T08:43:20.844Z,2.1846
2023-05-01T08:45:48.034Z,2.3714
2023-05-01T08:46:50.751Z,2.3846
2023-05-01T08:47:53.268Z,2.2000
2023-05-01T08:48:55.816Z,2.1308
2023-05-01T08:49:58.794Z,2.2615
2023-05-01T08:51:01.041Z,2.0385
2023-05-01T08:52:03.745Z,1.9615
2023-05-01T08:53:06.242Z,1.9000
2023-05-01T08:54:08.873Z,1.6923
2023-05-01T08:55:11.442Z,1.7308
2023-05-01T08:56:14.073Z,1.5692
2023-05-01T08:57:16.652Z,1.6000
2023-05-01T08:58:19.306Z,1.5692
2023-05-01T08:59:21.867Z,1.5385
2023-05-01T09:00:24.542Z,1.6308
2023-05-01T09:01:27.149Z,1.5385
2023-05-01T09:02:29.752Z,1.5692
2023-05-01T09:03:32.439Z,1.5077
2023-05-01T09:04:34.936Z,1.5154
2023-05-01T09:05:37.529Z,1.5000
2023-05-01T09:06:40.167Z,1.5769
2023-05-01T09:07:42.712Z,1.5000
2023-05-01T09:08:45.344Z,1.4538
2023-05-01T09:09:47.928Z,1.4923
2023-05-01T09:10:50.597Z,1.4462
2023-05-01T09:11:53.203Z,1.4385
2023-05-01T09:12:55.777Z,1.4692
2023-05-01T09:13:58.399Z,1.4000
2023-05-01T09:15:00.980Z,1.4231
2023-05-01T09:16:03.628Z,1.4923
2023-05-01T09:17:06.195Z,2.7154
2023-05-01T09:18:08.828Z,4.4385
2023-05-01T09:19:11.422Z,3.9846
2023-05-01T09:20:14.003Z,1.6538
2023-05-01T09:21:16.628Z,1.4000
2023-05-01T09:22:19.206Z,1.4308
2023-05-01T09:23:21.866Z,1.4231
2023-05-01T09:24:24.426Z,1.6077
2023-05-01T09:25:27.066Z,1.6308
2023-05-01T09:26:29.632Z,1.6538
2023-05-01T09:27:32.253Z,1.6769
2023-05-01T09:28:34.842Z,1.6231
2023-05-01T09:29:37.472Z,1.7462
2023-05-01T09:30:40.039Z,1.7308
2023-05-01T09:31:42.726Z,1.4000
2023-05-01T09:32:45.260Z,1.4923
2023-05-01T09:33:47.889Z,1.4846
2023-05-01T09:34:50.469Z,1.5923
2023-05-01T09:35:53.090Z,1.6308
2023-05-01T09:36:55.661Z,1.4615
2023-05-01T09:37:58.293Z,1.5154
2023-05-01T09:39:00.887Z,1.6231
2023-05-01T09:40:03.560Z,1.5615
2023-05-01T09:41:06.081Z,1.6615
2023-05-01T09:42:08.723Z,1.7154
2023-05-01T09:43:11.911Z,1.7846
2023-05-01T09:44:13.924Z,1.7385
2023-05-01T09:45:16.496Z,1.5385
2023-05-01T09:46:19.134Z,1.5231
2023-05-01T09:47:21.784Z,1.5923
2023-05-01T09:48:24.329Z,1.5077
2023-05-01T09:49:26.957Z,1.4231
2023-05-01T09:50:29.527Z,1.4692
2023-05-01T09:51:32.285Z,1.4462
2023-05-01T09:52:34.736Z,1.5000
2023-05-01T09:53:37.331Z,1.4231
2023-05-01T09:54:39.967Z,1.4538
2023-05-01T09:55:42.573Z,1.4077
2023-05-01T09:56:45.144Z,1.3846
2023-05-01T09:57:47.734Z,1.4846
2023-05-01T09:58:50.358Z,1.4077
2023-05-01T09:59:52.933Z,1.5308
2023-05-01T10:00:55.671Z,1.5077
2023-05-01T10:01:58.346Z,1.3077
2023-05-01T10:03:00.873Z,1.3000
2023-05-01T10:04:03.404Z,1.1923
2023-05-01T10:05:06.006Z,1.2462
2023-05-01T10:06:08.605Z,1.2462
2023-05-01T10:07:11.203Z,1.1923
2023-05-01T10:08:13.833Z,1.1923
2023-05-01T10:09:16.481Z,1.1846
2023-05-01T10:10:19.052Z,1.0846
2023-05-01T10:11:21.623Z,1.1000
2023-05-01T10:12:24.177Z,1.1231
2023-05-01T10:13:26.852Z,1.2308
2023-05-01T10:14:29.427Z,1.2154
2023-05-01T10:15:32.025Z,1.1231
2023-05-01T10:16:34.621Z,1.2615
2023-05-01T10:17:37.253Z,1.3231
2023-05-01T10:18:39.789Z,1.3154
2023-05-01T10:19:42.413Z,1.3385
2023-05-01T10:20:44.989Z,1.2231
2023-05-01T10:21:47.612Z,1.3077
2023-05-01T10:22:50.198Z,1.2308
2023-05-01T10:23:52.842Z,1.2538
2023-05-01T10:24:55.493Z,1.3385
2023-05-01T10:25:58.032Z,1.2154
2023-05-01T10:27:00.589Z,1.2077
2023-05-01T10:28:03.213Z,1.3538
2023-05-01T10:29:05.794Z,1.3846
2023-05-01T10:30:08.409Z,1.1923
2023-05-01T10:31:11.054Z,1.2846
2023-05-01T10:32:13.608Z,1.2154
2023-05-01T10:33:16.217Z,1.2462
2023-05-01T10:34:18.822Z,1.2538
2023-05-01T10:35:21.382Z,1.1538
2023-05-01T10:36:24.030Z,1.2077
2023-05-01T10:37:26.591Z,1.1538
2023-05-01T10:38:29.189Z,1.1615
2023-05-01T10:39:31.765Z,1.2923
2023-05-01T10:40:34.384Z,1.1308
2023-05-01T10:41:36.961Z,1.2385
2023-05-01T10:42:39.619Z,1.2000
2023-05-01T10:43:42.178Z,1.2538
2023-05-01T10:44:44.779Z,1.1692
2023-05-01T10:45:47.354Z,1.2538
2023-05-01T10:46:50.088Z,1.2231
2023-05-01T10:47:52.579Z,1.3692
2023-05-01T10:48:55.181Z,1.4615
2023-05-01T10:49:57.752Z,1.5077
2023-05-01T10:51:00.379Z,1.4385
2023-05-01T10:52:02.944Z,1.4077
2023-05-01T10:53:05.580Z,1.3846
2023-05-01T10:54:08.161Z,1.3231
2023-05-01T10:55:10.774Z,1.4000
2023-05-01T10:56:13.366Z,1.4154
2023-05-01T10:57:16.014Z,1.3846
2023-05-01T10:58:18.560Z,1.3154
2023-05-01T10:59:21.185Z,1.3846
2023-05-01T11:00:23.754Z,1.2923
2023-05-01T11:01:26.398Z,1.2462
2023-05-01T11:02:29.026Z,1.3077
2023-05-01T11:03:31.581Z,1.2308
2023-05-01T11:04:34.150Z,1.2692
2023-05-01T11:05:38.665Z,1.2846
2023-05-01T11:06:39.491Z,1.1692
2023-05-01T11:07:41.966Z,1.3538
2023-05-01T11:08:46.059Z,1.3462
2023-05-01T11:09:47.185Z,1.2615
2023-05-01T11:10:49.746Z,1.3692
2023-05-01T11:11:52.359Z,1.4231
2023-05-01T11:12:54.948Z,1.3923
2023-05-01T11:13:57.561Z,1.5231
2023-05-01T11:15:00.249Z,1.4077
2023-05-01T11:16:02.776Z,1.2769
2023-05-01T11:17:05.353Z,1.1692
2023-05-01T11:18:07.975Z,1.2462
2023-05-01T11:19:10.549Z,1.3462
2023-05-01T11:20:13.209Z,1.3385
2023-05-01T11:21:15.734Z,1.4615
2023-05-01T11:22:18.372Z,1.2385
2023-05-01T11:23:20.936Z,1.3923
2023-05-01T11:24:23.551Z,1.3000
2023-05-01T11:25:26.137Z,1.3538
2023-05-01T11:26:30.645Z,1.3538
2023-05-01T11:27:31.342Z,1.3154
2023-05-01T11:28:33.957Z,1.3308
2023-05-01T11:29:36.546Z,1.4385
2023-05-01T11:30:39.240Z,1.4923
2023-05-01T11:31:41.792Z,1.5077
2023-05-01T11:32:44.395Z,1.6077
2023-05-01T11:33:46.919Z,1.2462
2023-05-01T11:34:49.545Z,1.2000
2023-05-01T11:35:52.103Z,1.1154
2023-05-01T11:36:54.733Z,1.1846
2023-05-01T11:37:57.310Z,1.3000
2023-05-01T11:39:00.023Z,1.3000
2023-05-01T11:40:02.507Z,1.1462
2023-05-01T11:41:05.405Z,1.3769
2023-05-01T11:42:07.754Z,1.3692
2023-05-01T11:43:10.337Z,1.6308
2023-05-01T11:44:12.925Z,1.8308
2023-05-01T11:45:15.527Z,2.1615
2023-05-01T11:46:18.144Z,2.3154
2023-05-01T11:47:20.735Z,2.3000
2023-05-01T11:48:23.297Z,2.1692
2023-05-01T11:49:25.895Z,2.2077
2023-05-01T11:50:28.547Z,1.9615
2023-05-01T11:51:31.113Z,2.0385
2023-05-01T11:52:33.724Z,2.0385
2023-05-01T11:53:36.295Z,1.9385
2023-05-01T11:54:38.920Z,1.7846
2023-05-01T11:55:41.500Z,1.8462
2023-05-01T11:56:44.122Z,1.9154
2023-05-01T11:57:46.690Z,1.7308
2023-05-01T11:58:49.314Z,1.7769
2023-05-01T11:59:51.892Z,1.7538
2023-05-01T12:00:54.521Z,1.7000
2023-05-01T12:01:57.152Z,1.8769
2023-05-01T12:02:59.867Z,1.8077
2023-05-01T12:04:02.374Z,1.7615
2023-05-01T12:05:05.102Z,1.7692
2023-05-01T12:06:07.550Z,1.6923
2023-05-01T12:07:10.118Z,1.7154
2023-05-01T12:09:37.244Z,1.9429
2023-05-01T12:10:39.882Z,2.0308
2023-05-01T12:11:42.461Z,1.9154
2023-05-01T12:12:45.071Z,1.9692
2023-05-01T12:13:47.661Z,1.9077
2023-05-01T12:14:50.275Z,1.8615
2023-05-01T12:15:52.864Z,1.7462
2023-05-01T12:16:55.537Z,1.6231
2023-05-01T12:17:58.082Z,1.6308
2023-05-01T12:19:00.694Z,1.7077
2023-05-01T12:20:03.283Z,1.7462
2023-05-01T12:21:05.950Z,1.6615
2023-05-01T12:22:08.872Z,1.6846
2023-05-01T12:23:11.137Z,1.8385
2023-05-01T12:24:13.700Z,2.0077
2023-05-01T12:25:16.329Z,1.9769
2023-05-01T12:26:18.930Z,1.8923
2023-05-01T12:27:21.534Z,2.0231
2023-05-01T12:28:24.110Z,1.9385
2023-05-01T12:29:26.741Z,1.8846
2023-05-01T12:30:29.319Z,1.9385
2023-05-01T12:31:32.006Z,1.8692
2023-05-01T12:32:34.692Z,1.9154
2023-05-01T12:33:37.191Z,1.8615
2023-05-01T12:34:39.743Z,1.9231
2023-05-01T12:35:42.364Z,1.8923
2023-05-01T12:36:45.011Z,1.8846
2023-05-01T12:37:47.566Z,1.9846
2023-05-01T12:38:50.149Z,1.9000
2023-05-01T12:39:52.804Z,1.9308
2023-05-01T12:40:55.360Z,1.8769
2023-05-01T12:41:58.016Z,2.0769
2023-05-01T12:43:00.568Z,1.9538
2023-05-01T12:44:03.185Z,2.1077
2023-05-01T12:45:05.768Z,1.9692
2023-05-01T12:46:08.408Z,1.9923
2023-05-01T12:47:11.029Z,1.9385
2023-05-01T12:48:13.609Z,1.9308
2023-05-01T12:49:16.172Z,2.0231
2023-05-01T12:50:18.797Z,2.0615
2023-05-01T12:51:21.380Z,2.0538
2023-05-01T12:52:24.000Z,1.9692
2023-05-01T12:53:26.826Z,1.8308
2023-05-01T12:54:29.202Z,2.2000
2023-05-01T12:55:31.780Z,4.2615
2023-05-01T12:56:34.405Z,7.4077
2023-05-01T12:57:36.988Z,7.9692
2023-05-01T12:58:39.604Z,8.6308
2023-05-01T12:59:42.231Z,5.4692
2023-05-01T13:00:44.815Z,5.0615
2023-05-01T13:01:47.502Z,4.3385
2023-05-01T13:02:50.213Z,3.5615
2023-05-01T13:03:52.610Z,2.6385
2023-05-01T13:06:53.574Z,1.9571
2023-05-01T13:07:56.061Z,2.1615
2023-05-01T13:08:58.677Z,2.1692
2023-05-01T13:10:01.518Z,2.1769
2023-05-01T13:12:28.383Z,2.1571
2023-05-01T13:13:31.012Z,2.1385
2023-05-01T13:14:33.615Z,2.1846
2023-05-01T13:15:36.223Z,2.3538
2023-05-01T13:16:38.888Z,2.1615
2023-05-01T13:17:41.499Z,2.0538
2023-05-01T13:18:44.033Z,2.1462
2023-05-01T13:19:46.646Z,1.9231
2023-05-01T13:20:49.207Z,2.1154
2023-05-01T13:21:51.841Z,1.9923
2023-05-01T13:22:54.425Z,2.1846